Time;durP1;ratioP1;P1;durP2;ratioP2;P2;SDS_P1;SDS_P2;PMS_P1;PMS_P2;Temp;Humidity;BMP_temperature;BMP_pressure;BME280_temperature;BME280_humidity;BME280_pressure;Samples;Min_cycle;Max_cycle;Signal;HPM_P1;HPM_P2
2023/01/18 00:01:05;;;;;;;7.35;3.88;;;0.90;99.90;;;;;;5028693;28;20237;-69
2023/01/18 00:03:33;;;;;;;5.38;3.78;;;0.90;99.90;;;;;;5029380;28;20232;-69
2023/01/18 00:06:01;;;;;;;4.55;2.60;;;0.90;99.90;;;;;;5028477;28;20221;-69
2023/01/18 00:08:29;;;;;;;3.55;3.15;;;1.00;99.90;;;;;;5028542;28;20446;-70
2023/01/18 00:11:02;;;;;;;3.50;2.75;;;1.00;99.90;;;;;;5029177;28;20202;-69
2023/01/18 00:13:30;;;;;;;4.05;3.45;;;0.90;99.90;;;;;;5028636;28;20555;-69
2023/01/18 00:16:02;;;;;;;3.40;2.85;;;0.90;99.90;;;;;;5029505;28;20230;-69
2023/01/18 00:18:29;;;;;;;3.25;2.78;;;0.90;99.90;;;;;;5029272;28;20700;-69
2023/01/18 00:20:59;;;;;;;3.35;3.15;;;0.90;99.90;;;;;;5032487;28;20635;-68
2023/01/18 00:23:26;;;;;;;3.25;2.95;;;0.90;99.90;;;;;;5033181;28;20225;-69
2023/01/18 00:25:52;;;;;;;4.28;2.80;;;0.90;99.90;;;;;;5032701;28;20251;-69
2023/01/18 00:28:21;;;;;;;3.40;2.78;;;0.90;99.90;;;;;;5032197;28;20202;-69
2023/01/18 00:30:49;;;;;;;3.05;2.75;;;0.90;99.90;;;;;;5032926;28;20255;-69
2023/01/18 00:33:16;;;;;;;3.13;2.83;;;0.80;99.90;;;;;;5032695;28;20209;-69
2023/01/18 00:35:43;;;;;;;4.05;3.30;;;0.80;99.90;;;;;;5032150;28;20741;-69
2023/01/18 00:38:11;;;;;;;4.70;2.80;;;0.90;99.90;;;;;;5032245;28;20206;-69
2023/01/18 00:40:38;;;;;;;3.08;2.70;;;0.90;99.90;;;;;;5032806;28;20248;-69
2023/01/18 00:45:50;;;;;;;3.28;2.78;;;0.90;99.90;;;;;;5032941;28;20232;-69
2023/01/18 00:48:17;;;;;;;3.53;2.85;;;0.90;99.90;;;;;;5031816;28;20205;-70
2023/01/18 00:50:44;;;;;;;4.32;3.25;;;0.90;99.90;;;;;;5031816;28;20213;-70
2023/01/18 00:53:11;;;;;;;4.60;3.38;;;1.00;99.90;;;;;;5032201;28;20252;-70
2023/01/18 00:55:37;;;;;;;3.92;3.63;;;0.90;99.90;;;;;;5032606;28;20637;-71
2023/01/18 00:58:04;;;;;;;7.10;3.67;;;0.90;99.90;;;;;;5031678;28;20205;-70
2023/01/18 01:00:31;;;;;;;4.38;3.63;;;0.90;99.90;;;;;;5033541;28;20212;-70
2023/01/18 01:02:59;;;;;;;3.88;3.22;;;0.90;99.90;;;;;;5033726;28;20205;-71
2023/01/18 01:08:23;;;;;;;8.10;2.70;;;0.90;99.90;;;;;;4991372;28;20202;-71
2023/01/18 01:10:51;;;;;;;5.30;3.60;;;0.90;99.90;;;;;;5023148;28;20202;-70
2023/01/18 01:27:04;;;;;;;4.00;3.00;;;0.90;99.90;;;;;;5033300;28;20197;-71
2023/01/18 01:29:31;;;;;;;3.13;2.83;;;0.90;99.90;;;;;;5032565;28;20208;-70
2023/01/18 01:31:58;;;;;;;4.47;3.63;;;0.90;99.90;;;;;;5032259;28;20202;-70
2023/01/18 01:34:28;;;;;;;3.30;3.00;;;0.90;99.90;;;;;;5032777;28;20201;-70
2023/01/18 01:36:55;;;;;;;4.80;3.45;;;0.90;99.90;;;;;;5032983;28;20226;-70
2023/01/18 01:39:22;;;;;;;4.20;3.60;;;0.90;99.90;;;;;;5032514;28;20558;-71
2023/01/18 01:41:49;;;;;;;3.22;2.80;;;1.00;99.90;;;;;;5032762;28;20242;-71
2023/01/18 01:44:44;;;;;;;3.88;3.45;;;1.00;99.90;;;;;;5032610;28;20236;-70
2023/01/18 01:47:17;;;;;;;5.47;3.50;;;1.00;99.90;;;;;;5030074;28;20202;-69
2023/01/18 01:49:48;;;;;;;4.65;3.45;;;1.00;99.90;;;;;;5032371;28;20202;-70
2023/01/18 01:52:20;;;;;;;5.13;3.50;;;0.90;99.90;;;;;;5032313;28;20205;-71
2023/01/18 01:54:50;;;;;;;3.60;3.30;;;0.90;99.90;;;;;;5032695;28;20206;-70
2023/01/18 01:57:21;;;;;;;5.85;3.10;;;0.90;99.90;;;;;;5032464;28;20319;-71
2023/01/18 01:59:53;;;;;;;4.28;3.83;;;0.90;99.90;;;;;;5032333;28;20198;-70
2023/01/18 02:02:20;;;;;;;4.63;4.07;;;0.90;99.90;;;;;;5032548;28;20333;-70
2023/01/18 02:04:52;;;;;;;6.43;4.20;;;0.90;99.90;;;;;;5031838;28;20226;-70
2023/01/18 02:07:19;;;;;;;4.45;3.80;;;0.90;99.90;;;;;;5032372;28;20304;-70
2023/01/18 02:09:46;;;;;;;6.32;4.30;;;0.90;99.90;;;;;;5031813;28;20209;-70
2023/01/18 02:12:13;;;;;;;5.28;4.10;;;0.90;99.90;;;;;;5032053;28;20668;-71
2023/01/18 02:14:40;;;;;;;4.72;4.22;;;0.90;99.90;;;;;;5032215;28;20205;-71
2023/01/18 02:17:21;;;;;;;7.75;4.20;;;0.90;99.90;;;;;;5031852;28;20202;-71
2023/01/18 02:20:23;;;;;;;6.10;4.18;;;0.90;99.90;;;;;;5031797;28;20202;-71
2023/01/18 02:23:24;;;;;;;4.95;4.05;;;0.90;99.90;;;;;;5031812;28;20205;-70
2023/01/18 02:26:17;;;;;;;8.27;5.30;;;0.90;99.90;;;;;;5029478;28;20700;-70
2023/01/18 02:28:50;;;;;;;6.88;4.18;;;0.90;99.90;;;;;;5031572;28;20208;-71
2023/01/18 02:31:19;;;;;;;7.68;4.68;;;0.90;99.90;;;;;;5031793;28;20208;-70
2023/01/18 02:33:53;;;;;;;7.53;4.25;;;0.90;99.90;;;;;;5031612;28;20205;-70
2023/01/18 02:36:30;;;;;;;5.15;4.28;;;0.80;99.90;;;;;;5031550;28;20232;-70
2023/01/18 02:39:05;;;;;;;4.25;3.45;;;0.80;99.90;;;;;;5031090;28;20202;-71
2023/01/18 02:47:16;;;;;;;4.72;4.03;;;0.80;99.90;;;;;;5031655;28;20200;-70
2023/01/18 02:49:43;;;;;;;5.07;4.00;;;0.80;99.90;;;;;;5031106;28;20206;-70
2023/01/18 02:52:38;;;;;;;5.85;4.68;;;0.70;99.90;;;;;;5031110;28;20202;-70
2023/01/18 02:55:08;;;;;;;4.10;3.70;;;0.70;99.90;;;;;;5031165;28;20259;-70
2023/01/18 02:57:35;;;;;;;6.53;4.97;;;0.70;99.90;;;;;;5031373;28;20605;-69
2023/01/18 03:00:08;;;;;;;7.50;4.68;;;0.70;99.90;;;;;;5031122;28;20228;-69
2023/01/18 03:02:36;;;;;;;5.03;3.70;;;0.80;99.90;;;;;;5031211;28;20264;-70
2023/01/18 03:05:04;;;;;;;5.10;4.57;;;0.70;99.90;;;;;;5031276;28;20351;-69
2023/01/18 03:07:35;;;;;;;5.13;3.70;;;0.70;99.90;;;;;;5030368;28;20285;-70
2023/01/18 03:10:05;;;;;;;5.32;3.75;;;0.80;99.90;;;;;;5030687;28;20197;-69
2023/01/18 03:12:45;;;;;;;4.85;3.70;;;0.70;99.90;;;;;;5031312;28;20850;-70
2023/01/18 03:15:21;;;;;;;7.13;4.97;;;0.70;99.90;;;;;;5030892;28;20249;-70
2023/01/18 03:17:51;;;;;;;9.40;4.45;;;0.70;99.90;;;;;;5031288;28;20201;-70
2023/01/18 03:20:24;;;;;;;6.70;4.43;;;0.70;99.90;;;;;;5030326;28;20209;-69
2023/01/18 03:25:43;;;;;;;10.10;5.30;;;0.60;99.90;;;;;;5030853;28;20643;-70
2023/01/18 03:33:53;;;;;;;8.65;5.65;;;0.60;99.90;;;;;;5030958;28;20572;-71
2023/01/18 03:36:25;;;;;;;8.80;5.65;;;0.50;99.90;;;;;;5030606;28;20225;-70
2023/01/18 03:38:55;;;;;;;5.90;5.07;;;0.50;99.90;;;;;;5030453;28;20202;-69
2023/01/18 03:41:26;;;;;;;8.05;5.05;;;0.50;99.90;;;;;;5030705;28;20368;-70
2023/01/18 03:43:58;;;;;;;7.55;5.85;;;0.50;99.90;;;;;;5030710;28;20280;-70
2023/01/18 03:46:28;;;;;;;7.65;4.80;;;0.50;99.90;;;;;;5030721;28;20226;-70
2023/01/18 03:48:56;;;;;;;6.00;4.00;;;0.50;99.90;;;;;;5030377;28;20605;-69
2023/01/18 03:51:29;;;;;;;6.25;4.47;;;0.40;99.90;;;;;;5030676;28;20205;-70
2023/01/18 03:54:04;;;;;;;10.15;5.03;;;0.40;99.90;;;;;;5033380;28;20198;-70
2023/01/18 03:56:39;;;;;;;4.95;4.00;;;0.40;99.90;;;;;;5037294;28;20236;-70
2023/01/18 03:59:07;;;;;;;6.55;4.50;;;0.40;99.90;;;;;;5036626;28;20250;-70
2023/01/18 04:01:35;;;;;;;4.75;3.95;;;0.50;99.90;;;;;;5037407;28;20569;-70
2023/01/18 04:04:02;;;;;;;6.70;4.15;;;0.50;99.90;;;;;;5037322;28;20213;-70
2023/01/18 04:06:31;;;;;;;3.58;3.20;;;0.50;99.90;;;;;;5037105;28;20613;-70
2023/01/18 04:08:57;;;;;;;3.92;2.75;;;0.50;99.90;;;;;;5036767;28;20581;-70
2023/01/18 04:11:24;;;;;;;3.40;3.10;;;0.50;99.90;;;;;;5036960;28;20201;-71
2023/01/18 04:13:51;;;;;;;5.32;3.85;;;0.50;99.90;;;;;;5037208;28;20202;-71
2023/01/18 04:16:17;;;;;;;5.72;3.10;;;0.40;99.90;;;;;;5036809;28;20217;-71
2023/01/18 04:18:45;;;;;;;6.32;3.05;;;0.40;99.90;;;;;;5036781;28;20695;-71
2023/01/18 04:21:12;;;;;;;4.43;4.00;;;0.50;99.90;;;;;;5036867;28;20217;-71
2023/01/18 04:23:39;;;;;;;5.70;4.32;;;0.40;99.90;;;;;;5036888;28;20205;-71
2023/01/18 04:26:05;;;;;;;5.80;4.00;;;0.50;99.90;;;;;;5036785;28;20587;-70
2023/01/18 04:28:33;;;;;;;3.47;3.13;;;0.50;99.90;;;;;;5036394;28;20205;-70
2023/01/18 04:31:00;;;;;;;6.78;3.95;;;0.50;99.90;;;;;;5036785;28;20205;-71
2023/01/18 04:33:26;;;;;;;3.10;2.58;;;0.50;99.90;;;;;;5036505;28;20209;-70
2023/01/18 04:35:54;;;;;;;4.40;3.70;;;0.40;99.90;;;;;;5031373;28;20222;-70
2023/01/18 04:38:22;;;;;;;4.30;3.25;;;0.50;99.90;;;;;;5030500;28;20213;-71
2023/01/18 04:40:48;;;;;;;3.63;2.72;;;0.40;99.90;;;;;;5028692;28;20197;-71
2023/01/18 04:43:15;;;;;;;3.65;2.80;;;0.40;99.90;;;;;;5022152;28;20205;-70
2023/01/18 04:45:45;;;;;;;5.10;3.35;;;0.40;99.90;;;;;;5022400;28;20214;-70
2023/01/18 04:48:11;;;;;;;3.90;3.00;;;0.40;99.90;;;;;;5022487;28;20197;-70
2023/01/18 04:50:38;;;;;;;4.80;3.50;;;0.40;99.90;;;;;;5024583;28;20198;-70
2023/01/18 04:53:06;;;;;;;4.68;3.90;;;0.40;99.90;;;;;;5032282;28;20259;-70
2023/01/18 04:55:33;;;;;;;4.95;4.13;;;0.40;99.90;;;;;;5016236;28;20301;-70
2023/01/18 04:58:00;;;;;;;4.38;3.78;;;0.40;99.90;;;;;;5016645;28;20214;-70
2023/01/18 05:00:26;;;;;;;4.97;3.40;;;0.40;99.90;;;;;;5016253;28;20206;-69
2023/01/18 05:02:53;;;;;;;3.03;2.58;;;0.40;99.90;;;;;;5016829;28;20551;-70
2023/01/18 05:05:20;;;;;;;4.45;3.60;;;0.40;99.90;;;;;;5014517;28;20230;-71
2023/01/18 05:07:47;;;;;;;3.03;2.70;;;0.40;99.90;;;;;;5014374;28;20265;-71
2023/01/18 05:10:16;;;;;;;4.15;2.63;;;0.40;99.90;;;;;;5013307;28;20593;-70
2023/01/18 05:12:43;;;;;;;3.42;3.13;;;0.30;99.90;;;;;;5014471;28;20210;-70
2023/01/18 05:15:10;;;;;;;3.75;3.00;;;0.30;99.90;;;;;;5015515;28;20697;-70
2023/01/18 05:17:37;;;;;;;3.10;2.80;;;0.20;99.90;;;;;;5021349;28;20206;-71
2023/01/18 05:20:06;;;;;;;3.88;3.08;;;0.20;99.90;;;;;;5032133;28;20205;-70
2023/01/18 05:22:33;;;;;;;3.60;3.30;;;0.30;99.90;;;;;;5033154;28;20202;-71
2023/01/18 05:25:00;;;;;;;3.65;3.35;;;0.30;99.90;;;;;;5032364;28;20229;-70
2023/01/18 05:27:28;;;;;;;5.03;4.50;;;0.30;99.90;;;;;;5031965;28;20457;-71
2023/01/18 05:29:55;;;;;;;6.18;3.83;;;0.30;99.90;;;;;;5032640;28;20205;-70
2023/01/18 05:32:22;;;;;;;3.58;3.28;;;0.40;99.90;;;;;;5032766;28;20213;-70
2023/01/18 05:34:49;;;;;;;4.82;3.47;;;0.30;99.90;;;;;;5031246;28;20206;-70
2023/01/18 05:37:15;;;;;;;3.88;2.58;;;0.30;99.90;;;;;;5032744;28;20206;-70
2023/01/18 05:39:42;;;;;;;3.83;3.40;;;0.30;99.90;;;;;;5032760;28;20204;-71
2023/01/18 05:42:09;;;;;;;3.80;3.40;;;0.30;99.90;;;;;;5032492;28;20676;-69
2023/01/18 05:44:37;;;;;;;2.45;2.25;;;0.30;99.90;;;;;;5032966;28;20215;-70
2023/01/18 05:47:04;;;;;;;3.10;2.80;;;0.30;99.90;;;;;;5032615;28;20557;-70
2023/01/18 05:49:30;;;;;;;3.50;2.75;;;0.30;99.90;;;;;;5032267;28;20208;-70
2023/01/18 05:51:57;;;;;;;2.60;2.40;;;0.30;99.90;;;;;;5032712;28;20201;-70
2023/01/18 05:54:24;;;;;;;3.40;3.10;;;0.30;99.90;;;;;;5031801;28;20209;-71
2023/01/18 05:56:51;;;;;;;2.70;2.45;;;0.20;99.90;;;;;;5032804;28;20229;-70
2023/01/18 05:59:18;;;;;;;3.17;2.80;;;0.20;99.90;;;;;;5031490;28;20198;-71
2023/01/18 06:01:46;;;;;;;2.95;2.45;;;0.20;99.90;;;;;;5032579;28;20202;-70
2023/01/18 06:04:13;;;;;;;3.70;2.50;;;0.20;99.90;;;;;;5031838;28;20677;-70
2023/01/18 06:06:39;;;;;;;3.17;2.88;;;0.20;99.90;;;;;;5032218;28;20233;-70
2023/01/18 06:09:06;;;;;;;2.05;1.85;;;0.20;99.90;;;;;;5031518;28;20699;-70
2023/01/18 06:11:33;;;;;;;3.08;2.47;;;0.20;99.90;;;;;;5032439;28;20202;-70
2023/01/18 06:13:59;;;;;;;2.47;2.28;;;0.20;99.90;;;;;;5032143;28;20208;-70
2023/01/18 06:16:26;;;;;;;2.67;2.30;;;0.20;99.90;;;;;;5031576;28;20225;-70
2023/01/18 06:18:54;;;;;;;3.05;2.75;;;0.20;99.90;;;;;;5031653;28;20206;-70
2023/01/18 06:21:21;;;;;;;4.07;3.40;;;0.20;99.90;;;;;;5031860;28;20364;-70
2023/01/18 06:23:48;;;;;;;2.88;2.58;;;0.10;99.90;;;;;;5031500;28;20205;-70
2023/01/18 06:26:14;;;;;;;2.35;2.15;;;0.10;99.90;;;;;;5031410;28;20236;-70
2023/01/18 06:28:41;;;;;;;2.50;2.08;;;0.10;99.90;;;;;;5031481;28;20198;-71
2023/01/18 06:31:09;;;;;;;2.28;2.00;;;0.10;99.90;;;;;;5031489;28;20202;-70
2023/01/18 06:33:36;;;;;;;2.60;2.10;;;0.10;99.90;;;;;;5032008;28;20228;-70
2023/01/18 06:36:04;;;;;;;2.75;2.20;;;0.20;99.90;;;;;;5031617;28;20228;-70
2023/01/18 06:38:31;;;;;;;2.58;2.17;;;0.30;99.90;;;;;;5031289;28;20268;-69
2023/01/18 06:40:58;;;;;;;3.15;2.33;;;0.30;99.90;;;;;;5031761;28;20624;-70
2023/01/18 06:43:25;;;;;;;2.30;2.10;;;0.30;99.90;;;;;;5031395;28;20623;-70
2023/01/18 06:45:53;;;;;;;3.45;2.38;;;0.20;99.90;;;;;;5031472;28;20723;-70
2023/01/18 06:48:20;;;;;;;3.30;2.47;;;0.20;99.90;;;;;;5030644;28;20237;-69
2023/01/18 06:50:47;;;;;;;3.40;3.10;;;0.20;99.90;;;;;;5031584;28;20212;-70
2023/01/18 06:53:15;;;;;;;2.85;2.40;;;0.20;99.90;;;;;;5030992;28;20197;-70
2023/01/18 06:55:42;;;;;;;5.65;2.80;;;0.20;99.90;;;;;;5031420;28;20233;-70
2023/01/18 06:58:09;;;;;;;3.78;2.47;;;0.30;99.90;;;;;;5030658;28;20213;-69
2023/01/18 07:00:36;;;;;;;6.28;2.28;;;0.30;99.90;;;;;;5031326;28;20233;-70
2023/01/18 07:03:03;;;;;;;3.40;2.70;;;0.20;99.90;;;;;;5031140;28;20661;-70
2023/01/18 07:05:29;;;;;;;3.97;2.78;;;0.10;99.90;;;;;;5031008;28;20236;-69
2023/01/18 07:07:56;;;;;;;3.13;2.80;;;0.20;99.90;;;;;;5031266;28;20631;-70
2023/01/18 07:10:24;;;;;;;4.43;2.90;;;0.20;99.90;;;;;;5030309;28;20217;-70
2023/01/18 07:12:51;;;;;;;4.18;3.35;;;0.10;99.90;;;;;;5031080;28;20623;-70
2023/01/18 07:15:17;;;;;;;3.05;2.78;;;0.10;99.90;;;;;;5030651;28;20593;-70
2023/01/18 07:17:44;;;;;;;2.83;2.63;;;0.10;99.90;;;;;;5031170;28;20213;-70
2023/01/18 07:20:14;;;;;;;3.45;3.15;;;0.10;99.90;;;;;;5030181;28;20201;-70
2023/01/18 07:22:41;;;;;;;3.80;2.90;;;0.20;99.90;;;;;;5031490;28;20198;-70
2023/01/18 07:25:12;;;;;;;5.75;3.05;;;0.10;99.90;;;;;;5029338;28;20230;-70
2023/01/18 07:27:42;;;;;;;5.97;3.70;;;0.20;99.90;;;;;;5030666;28;20209;-69
2023/01/18 07:30:11;;;;;;;3.72;2.65;;;0.20;99.90;;;;;;5022217;28;20202;-69
2023/01/18 07:32:37;;;;;;;6.10;3.20;;;0.10;99.90;;;;;;5030355;28;20212;-70
2023/01/18 07:35:06;;;;;;;4.05;3.00;;;0.10;99.90;;;;;;5030791;28;20221;-70
2023/01/18 07:37:34;;;;;;;3.60;2.88;;;0.10;99.90;;;;;;5030432;28;20201;-70
2023/01/18 07:40:01;;;;;;;3.45;3.15;;;0.10;99.90;;;;;;5030179;28;20300;-70
2023/01/18 07:42:28;;;;;;;2.78;2.45;;;0.10;99.90;;;;;;5029814;28;20209;-70
2023/01/18 07:44:56;;;;;;;2.95;2.67;;;0.20;99.90;;;;;;5030440;28;20225;-70
2023/01/18 07:47:23;;;;;;;5.72;3.25;;;0.20;99.90;;;;;;5030581;28;20225;-70
2023/01/18 07:49:50;;;;;;;4.35;3.53;;;0.10;99.90;;;;;;5029538;28;20201;-70
2023/01/18 07:52:16;;;;;;;5.35;3.22;;;0.10;99.90;;;;;;5030115;28;20209;-70
2023/01/18 07:54:43;;;;;;;3.30;2.70;;;0.10;99.90;;;;;;5029982;28;20217;-71
2023/01/18 07:57:10;;;;;;;2.97;2.78;;;0.10;99.90;;;;;;5030449;28;20213;-71
2023/01/18 07:59:38;;;;;;;5.40;3.33;;;0.10;99.90;;;;;;5029266;28;20197;-70
2023/01/18 08:02:11;;;;;;;3.88;3.13;;;0.10;99.90;;;;;;5030399;28;20201;-71
2023/01/18 08:04:38;;;;;;;4.68;3.45;;;0.20;99.90;;;;;;5030787;28;20202;-70
2023/01/18 08:07:04;;;;;;;3.55;3.15;;;0.20;99.90;;;;;;5029591;28;20229;-70
2023/01/18 08:09:32;;;;;;;4.28;3.10;;;0.30;99.90;;;;;;5030039;28;20582;-70
2023/01/18 08:11:59;;;;;;;8.50;4.13;;;0.30;99.90;;;;;;5030230;28;20202;-70
2023/01/18 08:14:26;;;;;;;2.50;2.28;;;0.30;99.90;;;;;;5030085;28;20221;-69
2023/01/18 08:16:53;;;;;;;4.50;3.22;;;0.30;99.90;;;;;;5030108;28;20233;-70
2023/01/18 08:19:21;;;;;;;5.45;3.60;;;0.40;99.90;;;;;;5029269;28;20213;-71
2023/01/18 08:21:48;;;;;;;6.07;3.00;;;0.50;99.90;;;;;;5030304;28;20590;-70
2023/01/18 08:24:15;;;;;;;3.65;2.75;;;0.50;99.90;;;;;;5030054;28;20221;-70
2023/01/18 08:26:41;;;;;;;5.25;3.72;;;0.60;99.90;;;;;;5030230;28;20705;-70
2023/01/18 08:29:08;;;;;;;3.50;3.20;;;0.60;99.90;;;;;;5029225;28;20582;-70
2023/01/18 08:31:35;;;;;;;4.25;3.83;;;0.60;99.90;;;;;;5015988;28;20210;-69
2023/01/18 08:34:02;;;;;;;3.35;3.05;;;0.60;99.90;;;;;;5029233;28;20202;-70
2023/01/18 08:36:30;;;;;;;3.17;2.97;;;0.60;99.90;;;;;;5029488;28;20248;-70
2023/01/18 08:38:57;;;;;;;4.90;4.10;;;0.60;99.90;;;;;;5029513;28;20206;-70
2023/01/18 08:41:27;;;;;;;4.50;3.67;;;0.60;99.90;;;;;;5032854;28;20804;-70
2023/01/18 08:43:54;;;;;;;7.88;2.40;;;0.50;99.90;;;;;;5033071;28;20726;-69
2023/01/18 08:46:22;;;;;;;2.42;2.22;;;0.40;99.90;;;;;;5033055;28;20240;-69
2023/01/18 08:48:50;;;;;;;3.28;2.35;;;0.50;99.90;;;;;;5033152;28;20217;-69
2023/01/18 08:51:17;;;;;;;5.05;2.97;;;0.50;99.90;;;;;;5033051;28;20209;-70
2023/01/18 08:53:46;;;;;;;3.55;2.75;;;0.50;99.90;;;;;;5032758;28;20206;-69
2023/01/18 08:56:13;;;;;;;6.15;3.45;;;0.60;99.90;;;;;;5032458;28;20717;-69
2023/01/18 08:58:39;;;;;;;3.22;2.50;;;0.50;99.90;;;;;;5032837;28;20202;-69
2023/01/18 09:01:07;;;;;;;3.15;2.50;;;0.60;99.90;;;;;;5033114;28;20575;-70
2023/01/18 09:03:34;;;;;;;3.33;2.80;;;0.60;99.90;;;;;;5033177;28;20216;-70
2023/01/18 09:06:01;;;;;;;3.78;3.45;;;0.60;99.90;;;;;;5033085;28;20249;-70
2023/01/18 09:08:28;;;;;;;3.45;2.70;;;0.60;99.90;;;;;;5032253;28;20767;-69
2023/01/18 09:11:01;;;;;;;2.75;2.40;;;0.60;99.90;;;;;;5033389;28;20213;-70
2023/01/18 09:13:28;;;;;;;4.00;3.13;;;0.60;99.90;;;;;;5032955;28;20244;-70
2023/01/18 09:15:58;;;;;;;2.65;2.20;;;0.70;99.90;;;;;;5033348;28;20228;-70
2023/01/18 09:18:25;;;;;;;5.45;3.60;;;0.80;99.90;;;;;;5032545;28;20202;-70
2023/01/18 09:20:53;;;;;;;4.88;3.92;;;0.90;99.90;;;;;;5032332;28;20206;-70
2023/01/18 09:23:21;;;;;;;7.00;3.40;;;1.00;99.90;;;;;;5032579;28;20689;-69
2023/01/18 09:25:48;;;;;;;4.35;2.47;;;1.00;99.90;;;;;;5032831;28;20646;-69
2023/01/18 09:28:16;;;;;;;3.83;3.20;;;1.10;99.90;;;;;;5032285;28;20205;-70
2023/01/18 09:30:43;;;;;;;3.28;2.97;;;1.10;99.90;;;;;;5032882;28;20198;-70
2023/01/18 09:33:11;;;;;;;3.75;3.33;;;1.00;99.90;;;;;;5030760;28;20194;-70
2023/01/18 09:35:38;;;;;;;3.45;3.15;;;1.00;99.90;;;;;;5033172;28;20692;-69
2023/01/18 09:38:06;;;;;;;3.33;3.03;;;1.00;99.90;;;;;;5022295;28;20194;-69
2023/01/18 09:40:43;;;;;;;2.60;2.40;;;1.00;99.90;;;;;;5012434;28;20772;-70
2023/01/18 09:43:27;;;;;;;6.40;2.38;;;1.10;99.90;;;;;;5024807;28;20204;-70
2023/01/18 09:45:55;;;;;;;3.88;2.42;;;1.00;99.90;;;;;;5032215;28;20244;-70
2023/01/18 09:48:31;;;;;;;3.65;1.95;;;1.00;99.90;;;;;;5031482;28;20213;-69
2023/01/18 09:51:02;;;;;;;2.72;2.28;;;1.00;99.90;;;;;;5031771;28;20222;-70
2023/01/18 09:53:49;;;;;;;2.67;2.42;;;1.00;99.90;;;;;;5032001;28;20214;-70
2023/01/18 09:56:21;;;;;;;4.70;2.85;;;1.00;99.90;;;;;;5031442;28;20229;-70
2023/01/18 09:58:59;;;;;;;3.05;2.55;;;1.00;99.90;;;;;;5030248;28;20206;-70
2023/01/18 10:01:30;;;;;;;2.70;2.50;;;1.00;99.90;;;;;;5031871;28;20205;-70
2023/01/18 10:04:01;;;;;;;2.65;2.45;;;1.10;99.90;;;;;;5031305;28;20202;-70
2023/01/18 10:06:30;;;;;;;3.33;2.58;;;1.10;99.90;;;;;;5031643;28;20261;-69
2023/01/18 10:09:01;;;;;;;3.28;2.50;;;1.20;99.90;;;;;;5031098;28;20206;-70
2023/01/18 10:11:37;;;;;;;2.03;1.90;;;1.20;99.90;;;;;;5031265;28;20219;-70
2023/01/18 10:14:13;;;;;;;4.57;2.92;;;1.20;99.90;;;;;;5031686;28;20673;-69
2023/01/18 10:16:40;;;;;;;2.97;2.67;;;1.20;99.90;;;;;;5023419;28;20904;-70
2023/01/18 10:19:16;;;;;;;3.00;2.42;;;1.20;99.90;;;;;;5031444;28;20213;-69
2023/01/18 10:21:51;;;;;;;3.17;2.10;;;1.20;99.90;;;;;;5031649;28;20668;-69
2023/01/18 10:24:29;;;;;;;2.58;2.38;;;1.20;99.90;;;;;;5031014;28;20288;-69
2023/01/18 10:27:09;;;;;;;2.70;2.40;;;1.30;99.90;;;;;;5031729;28;20225;-70
2023/01/18 10:29:48;;;;;;;4.95;2.78;;;1.30;99.90;;;;;;5031191;28;20206;-69
2023/01/18 10:32:19;;;;;;;3.85;3.05;;;1.20;99.90;;;;;;5031463;28;20197;-69
2023/01/18 10:34:50;;;;;;;3.45;2.80;;;1.30;99.90;;;;;;5031130;28;20202;-71
2023/01/18 10:37:26;;;;;;;3.55;2.75;;;1.20;99.90;;;;;;5031648;28;20205;-70
2023/01/18 10:39:57;;;;;;;5.43;2.90;;;1.20;99.90;;;;;;5030932;28;20555;-70
2023/01/18 10:42:29;;;;;;;3.55;2.75;;;1.40;99.90;;;;;;5031174;28;20205;-71
2023/01/18 10:44:57;;;;;;;3.58;3.00;;;1.40;99.90;;;;;;5031275;28;20267;-70
2023/01/18 10:47:23;;;;;;;6.10;3.13;;;1.40;99.90;;;;;;5011459;28;20226;-70
2023/01/18 10:49:51;;;;;;;3.30;3.00;;;1.40;99.90;;;;;;5011208;28;20584;-71
2023/01/18 10:52:21;;;;;;;4.10;2.80;;;1.40;99.90;;;;;;5017022;28;20197;-70
2023/01/18 10:54:51;;;;;;;3.08;2.30;;;1.50;99.90;;;;;;5030678;28;20578;-70
2023/01/18 10:57:23;;;;;;;3.10;2.83;;;1.40;99.90;;;;;;5030076;28;20202;-70
2023/01/18 10:59:51;;;;;;;4.25;2.78;;;1.30;99.90;;;;;;5030609;28;20206;-70
2023/01/18 11:02:23;;;;;;;6.55;3.00;;;1.30;99.90;;;;;;5029771;28;20292;-70
2023/01/18 11:04:56;;;;;;;3.38;2.70;;;1.30;99.90;;;;;;5030209;28;20229;-71
2023/01/18 11:07:27;;;;;;;3.58;2.75;;;1.40;99.90;;;;;;5030666;28;20222;-71
2023/01/18 11:09:58;;;;;;;5.45;2.65;;;1.40;99.90;;;;;;5029496;28;20229;-70
2023/01/18 11:12:37;;;;;;;3.25;2.95;;;1.60;99.90;;;;;;5030622;28;20205;-70
2023/01/18 11:15:23;;;;;;;3.47;3.10;;;1.70;99.90;;;;;;5030386;28;20234;-70
2023/01/18 11:18:08;;;;;;;4.22;2.97;;;1.70;99.90;;;;;;5030592;28;20194;-70
2023/01/18 11:20:42;;;;;;;4.35;3.08;;;1.70;99.90;;;;;;5030404;28;20724;-70
2023/01/18 11:23:19;;;;;;;4.63;3.58;;;1.60;99.90;;;;;;5029816;28;20718;-70
2023/01/18 11:25:54;;;;;;;3.55;3.17;;;1.50;99.90;;;;;;5030555;28;20700;-70
2023/01/18 11:28:23;;;;;;;3.08;2.55;;;1.50;99.90;;;;;;5029625;28;20234;-70
2023/01/18 11:30:54;;;;;;;4.22;2.95;;;1.50;99.90;;;;;;5029631;28;20198;-70
2023/01/18 11:33:24;;;;;;;4.82;3.15;;;1.50;99.90;;;;;;5030132;28;20292;-70
2023/01/18 11:35:58;;;;;;;3.65;3.28;;;1.50;99.90;;;;;;5028153;28;20225;-70
2023/01/18 11:38:30;;;;;;;3.20;2.65;;;1.50;99.90;;;;;;5029642;28;20375;-70
2023/01/18 11:41:22;;;;;;;4.85;3.05;;;1.50;99.90;;;;;;5030622;28;20206;-69
2023/01/18 11:44:04;;;;;;;4.20;2.88;;;1.40;99.90;;;;;;5012167;28;20206;-69
2023/01/18 11:46:43;;;;;;;3.30;2.60;;;1.40;99.90;;;;;;5009886;28;20229;-70
2023/01/18 11:49:27;;;;;;;3.33;2.67;;;1.40;99.90;;;;;;5009940;28;20205;-70
2023/01/18 11:52:00;;;;;;;3.40;3.08;;;1.40;99.90;;;;;;5010526;28;20217;-70
2023/01/18 11:54:34;;;;;;;4.18;3.38;;;1.30;99.90;;;;;;5010267;28;20593;-70
2023/01/18 11:57:02;;;;;;;3.25;2.65;;;1.30;99.90;;;;;;5010502;28;20313;-70
2023/01/18 11:59:30;;;;;;;3.30;2.70;;;1.40;99.90;;;;;;5009580;28;20661;-70
2023/01/18 12:02:34;;;;;;;2.17;1.95;;;1.30;99.90;;;;;;5010046;28;20202;-69
2023/01/18 12:05:19;;;;;;;3.53;3.03;;;1.30;99.90;;;;;;5010542;28;20233;-70
2023/01/18 12:07:54;;;;;;;3.38;2.85;;;1.30;99.90;;;;;;5010142;28;20222;-70
2023/01/18 12:10:22;;;;;;;3.53;2.90;;;1.30;99.90;;;;;;5009649;28;20209;-69
2023/01/18 12:13:11;;;;;;;5.45;2.90;;;1.30;99.90;;;;;;5010584;28;20202;-70
2023/01/18 12:15:56;;;;;;;4.00;2.45;;;1.40;99.90;;;;;;5012084;28;20222;-69
2023/01/18 12:18:43;;;;;;;2.55;2.28;;;1.30;99.90;;;;;;5013850;28;20565;-69
2023/01/18 12:21:13;;;;;;;3.85;2.60;;;1.30;99.90;;;;;;5013876;28;20206;-70
2023/01/18 12:24:08;;;;;;;2.63;2.40;;;1.30;99.90;;;;;;5013783;28;20206;-69
2023/01/18 12:26:47;;;;;;;2.25;2.05;;;1.40;99.90;;;;;;5014009;28;20218;-70
2023/01/18 12:29:41;;;;;;;3.20;2.25;;;1.50;99.90;;;;;;5013239;28;20208;-70
2023/01/18 12:32:22;;;;;;;3.15;2.70;;;1.60;99.90;;;;;;5013543;28;20209;-69
2023/01/18 12:35:01;;;;;;;3.20;2.42;;;1.60;99.90;;;;;;5013910;28;20209;-69
2023/01/18 12:37:40;;;;;;;2.72;2.53;;;1.60;99.90;;;;;;5013489;28;20681;-69
2023/01/18 12:40:31;;;;;;;3.38;2.50;;;1.60;99.90;;;;;;5013188;28;20202;-69
2023/01/18 12:43:06;;;;;;;4.13;2.50;;;1.60;99.90;;;;;;5013894;28;20594;-69
2023/01/18 12:45:36;;;;;;;4.05;2.28;;;1.70;99.90;;;;;;5013665;28;20222;-69
2023/01/18 12:48:14;;;;;;;2.90;2.50;;;1.80;99.90;;;;;;5013622;28;20226;-69
2023/01/18 12:50:44;;;;;;;3.08;2.50;;;1.90;99.90;;;;;;5013791;28;20214;-70
2023/01/18 12:53:17;;;;;;;3.08;2.58;;;1.90;99.90;;;;;;5013372;28;20585;-70
2023/01/18 12:55:47;;;;;;;2.78;2.58;;;1.90;99.90;;;;;;5013434;28;20230;-69
2023/01/18 12:58:19;;;;;;;5.60;2.80;;;1.90;99.90;;;;;;5013073;28;20203;-70
2023/01/18 13:00:51;;;;;;;4.00;2.75;;;1.80;99.90;;;;;;5012753;28;20198;-69
2023/01/18 13:03:23;;;;;;;3.10;2.60;;;1.80;99.90;;;;;;5013326;28;20202;-70
2023/01/18 13:05:55;;;;;;;2.65;2.17;;;1.90;99.90;;;;;;5013314;28;20226;-69
2023/01/18 13:08:33;;;;;;;2.78;2.28;;;1.90;99.90;;;;;;5012562;28;20238;-70
2023/01/18 13:11:05;;;;;;;3.17;2.78;;;2.00;99.90;;;;;;5013540;28;20206;-69
2023/01/18 13:13:33;;;;;;;7.47;3.05;;;1.90;99.90;;;;;;5012847;28;20214;-69
2023/01/18 13:16:09;;;;;;;3.45;2.55;;;1.80;99.90;;;;;;5013149;28;20621;-69
2023/01/18 13:18:43;;;;;;;3.95;2.83;;;1.70;99.90;;;;;;5012859;28;20230;-70
2023/01/18 13:21:19;;;;;;;4.82;2.53;;;1.80;99.90;;;;;;5013185;28;20229;-70
2023/01/18 13:23:55;;;;;;;3.60;2.85;;;1.70;99.90;;;;;;5012976;28;20229;-69
2023/01/18 13:26:26;;;;;;;2.60;2.40;;;1.90;99.90;;;;;;5011825;28;20225;-69
2023/01/18 13:29:15;;;;;;;4.70;2.75;;;1.90;99.90;;;;;;5012044;28;20230;-69
2023/01/18 13:31:43;;;;;;;3.80;2.38;;;1.90;99.90;;;;;;5013086;28;20301;-69
2023/01/18 13:34:24;;;;;;;2.60;2.03;;;1.90;99.90;;;;;;5012717;28;20212;-70
2023/01/18 13:36:51;;;;;;;4.78;2.70;;;1.90;99.90;;;;;;5012395;28;20233;-69
2023/01/18 13:39:20;;;;;;;2.25;1.65;;;1.80;99.90;;;;;;5012134;28;20198;-70
2023/01/18 13:42:07;;;;;;;5.28;2.88;;;1.80;99.90;;;;;;5012847;28;20566;-70
2023/01/18 13:44:39;;;;;;;2.65;2.25;;;1.80;99.90;;;;;;5012366;28;20203;-69
2023/01/18 13:47:45;;;;;;;3.20;2.45;;;1.70;99.90;;;;;;5012403;28;20202;-69
2023/01/18 13:50:44;;;;;;;2.67;2.40;;;1.60;99.90;;;;;;4996846;28;20206;-70